sensor_id;sensor_type;location;lat;lon;timestamp;pressure;altitude;pressure_sealevel;temperature;humidity
70256;BME280;57669;52.624;-1.688;2022-11-03T00:01:57;99781.89;;;8.89;56.45
70256;BME280;57669;52.624;-1.688;2022-11-03T00:04:23;99783.87;;;9.26;55.89
70256;BME280;57669;52.624;-1.688;2022-11-03T00:06:50;99784.93;;;8.81;56.12
70256;BME280;57669;52.624;-1.688;2022-11-03T00:09:15;99778.82;;;9.08;55.74
70256;BME280;57669;52.624;-1.688;2022-11-03T00:11:41;99780.70;;;8.80;56.03
70256;BME280;57669;52.624;-1.688;2022-11-03T00:14:05;99783.58;;;8.29;56.87
70256;BME280;57669;52.624;-1.688;2022-11-03T00:16:30;99777.79;;;8.55;55.51
70256;BME280;57669;52.624;-1.688;2022-11-03T00:18:55;99773.36;;;8.69;56.04
70256;BME280;57669;52.624;-1.688;2022-11-03T00:21:21;99773.80;;;9.11;54.87
70256;BME280;57669;52.624;-1.688;2022-11-03T00:23:47;99768.17;;;9.12;54.47
70256;BME280;57669;52.624;-1.688;2022-11-03T00:26:14;99770.91;;;9.33;53.47
70256;BME280;57669;52.624;-1.688;2022-11-03T00:28:39;99779.22;;;8.91;53.71
70256;BME280;57669;52.624;-1.688;2022-11-03T00:31:07;99776.15;;;8.84;53.67
70256;BME280;57669;52.624;-1.688;2022-11-03T00:33:30;99768.08;;;9.72;51.99
70256;BME280;57669;52.624;-1.688;2022-11-03T00:35:56;99768.17;;;8.83;52.77
70256;BME280;57669;52.624;-1.688;2022-11-03T00:38:20;99770.31;;;8.83;53.15
70256;BME280;57669;52.624;-1.688;2022-11-03T00:40:52;99772.84;;;9.43;51.98
70256;BME280;57669;52.624;-1.688;2022-11-03T00:43:11;99771.07;;;9.27;52.24
70256;BME280;57669;52.624;-1.688;2022-11-03T00:45:37;99769.20;;;9.66;51.13
70256;BME280;57669;52.624;-1.688;2022-11-03T00:48:03;99757.78;;;9.57;51.59
70256;BME280;57669;52.624;-1.688;2022-11-03T00:50:28;99759.45;;;9.23;51.69
70256;BME280;57669;52.624;-1.688;2022-11-03T00:52:54;99764.91;;;8.51;52.57
70256;BME280;57669;52.624;-1.688;2022-11-03T00:55:20;99758.82;;;9.79;51.34
70256;BME280;57669;52.624;-1.688;2022-11-03T00:57:46;99752.83;;;9.76;51.67
70256;BME280;57669;52.624;-1.688;2022-11-03T01:02:37;99766.20;;;9.35;51.74
70256;BME280;57669;52.624;-1.688;2022-11-03T01:05:03;99764.19;;;9.39;50.84
70256;BME280;57669;52.624;-1.688;2022-11-03T01:07:28;99755.63;;;9.56;51.52
70256;BME280;57669;52.624;-1.688;2022-11-03T01:09:54;99748.86;;;9.52;51.67
70256;BME280;57669;52.624;-1.688;2022-11-03T01:12:19;99750.97;;;9.88;51.37
70256;BME280;57669;52.624;-1.688;2022-11-03T01:14:47;99749.69;;;9.52;51.04
70256;BME280;57669;52.624;-1.688;2022-11-03T01:17:12;99751.51;;;10.13;50.51
70256;BME280;57669;52.624;-1.688;2022-11-03T01:19:36;99754.83;;;10.04;50.10
70256;BME280;57669;52.624;-1.688;2022-11-03T01:22:01;99749.12;;;10.16;50.51
70256;BME280;57669;52.624;-1.688;2022-11-03T01:24:26;99751.08;;;10.17;50.91
70256;BME280;57669;52.624;-1.688;2022-11-03T01:26:52;99746.05;;;9.58;52.19
70256;BME280;57669;52.624;-1.688;2022-11-03T01:29:17;99745.16;;;8.98;52.46
70256;BME280;57669;52.624;-1.688;2022-11-03T01:31:43;99742.53;;;9.03;52.72
70256;BME280;57669;52.624;-1.688;2022-11-03T01:34:13;99739.03;;;8.48;53.22
70256;BME280;57669;52.624;-1.688;2022-11-03T01:36:34;99734.35;;;9.06;52.71
70256;BME280;57669;52.624;-1.688;2022-11-03T01:39:00;99752.62;;;8.65;52.59
70256;BME280;57669;52.624;-1.688;2022-11-03T01:41:27;99754.21;;;9.34;53.10
70256;BME280;57669;52.624;-1.688;2022-11-03T01:46:20;99734.74;;;9.59;52.00
70256;BME280;57669;52.624;-1.688;2022-11-03T01:48:50;99740.08;;;9.85;52.01
70256;BME280;57669;52.624;-1.688;2022-11-03T01:51:10;99743.16;;;9.02;52.87
70256;BME280;57669;52.624;-1.688;2022-11-03T01:56:01;99736.59;;;9.93;50.68
70256;BME280;57669;52.624;-1.688;2022-11-03T01:58:28;99731.82;;;10.38;50.52
70256;BME280;57669;52.624;-1.688;2022-11-03T02:00:53;99727.46;;;10.48;50.50
70256;BME280;57669;52.624;-1.688;2022-11-03T02:03:17;99743.93;;;10.16;51.94
70256;BME280;57669;52.624;-1.688;2022-11-03T02:05:44;99747.84;;;10.32;51.51
70256;BME280;57669;52.624;-1.688;2022-11-03T02:08:12;99735.74;;;10.69;51.89
70256;BME280;57669;52.624;-1.688;2022-11-03T02:10:34;99738.84;;;10.92;51.65
70256;BME280;57669;52.624;-1.688;2022-11-03T02:13:00;99747.52;;;9.66;55.97
70256;BME280;57669;52.624;-1.688;2022-11-03T02:15:26;99741.67;;;10.49;54.32
70256;BME280;57669;52.624;-1.688;2022-11-03T02:17:53;99738.21;;;10.55;53.81
70256;BME280;57669;52.624;-1.688;2022-11-03T02:20:19;99739.35;;;10.72;54.72
70256;BME280;57669;52.624;-1.688;2022-11-03T02:22:55;99740.97;;;11.07;54.32
70256;BME280;57669;52.624;-1.688;2022-11-03T02:25:16;99736.39;;;11.34;54.07
70256;BME280;57669;52.624;-1.688;2022-11-03T02:27:34;99733.17;;;10.94;54.50
70256;BME280;57669;52.624;-1.688;2022-11-03T02:29:59;99727.20;;;10.79;54.45
70256;BME280;57669;52.624;-1.688;2022-11-03T02:32:28;99711.72;;;11.08;54.15
70256;BME280;57669;52.624;-1.688;2022-11-03T02:34:58;99709.21;;;11.12;54.33
70256;BME280;57669;52.624;-1.688;2022-11-03T02:37:19;99696.14;;;11.15;54.43
70256;BME280;57669;52.624;-1.688;2022-11-03T02:39:45;99692.50;;;11.07;54.71
70256;BME280;57669;52.624;-1.688;2022-11-03T02:42:08;99687.28;;;10.86;55.10
70256;BME280;57669;52.624;-1.688;2022-11-03T02:44:33;99688.65;;;11.14;54.86
70256;BME280;57669;52.624;-1.688;2022-11-03T02:47:00;99686.41;;;11.37;54.28
70256;BME280;57669;52.624;-1.688;2022-11-03T02:49:24;99676.27;;;10.97;55.40
70256;BME280;57669;52.624;-1.688;2022-11-03T02:51:58;99678.02;;;11.41;54.31
70256;BME280;57669;52.624;-1.688;2022-11-03T02:54:21;99687.73;;;11.26;54.67
70256;BME280;57669;52.624;-1.688;2022-11-03T02:56:45;99686.80;;;10.82;55.97
70256;BME280;57669;52.624;-1.688;2022-11-03T02:59:08;99687.45;;;10.42;57.54
70256;BME280;57669;52.624;-1.688;2022-11-03T03:01:34;99684.08;;;11.09;56.08
70256;BME280;57669;52.624;-1.688;2022-11-03T03:04:00;99683.51;;;10.66;56.75
70256;BME280;57669;52.624;-1.688;2022-11-03T03:06:26;99688.78;;;10.90;56.76
70256;BME280;57669;52.624;-1.688;2022-11-03T03:08:52;99683.88;;;10.95;56.20
70256;BME280;57669;52.624;-1.688;2022-11-03T03:11:14;99673.27;;;11.03;56.61
70256;BME280;57669;52.624;-1.688;2022-11-03T03:13:40;99667.24;;;9.65;59.38
70256;BME280;57669;52.624;-1.688;2022-11-03T03:16:10;99654.28;;;10.29;57.69
70256;BME280;57669;52.624;-1.688;2022-11-03T03:18:40;99659.50;;;10.33;58.36
70256;BME280;57669;52.624;-1.688;2022-11-03T03:21:01;99653.79;;;9.84;59.33
70256;BME280;57669;52.624;-1.688;2022-11-03T03:23:25;99648.98;;;9.75;59.13
70256;BME280;57669;52.624;-1.688;2022-11-03T03:25:52;99638.84;;;9.84;59.55
70256;BME280;57669;52.624;-1.688;2022-11-03T03:28:16;99634.31;;;10.11;58.22
70256;BME280;57669;52.624;-1.688;2022-11-03T03:30:40;99641.13;;;10.00;58.84
70256;BME280;57669;52.624;-1.688;2022-11-03T03:33:06;99635.97;;;9.43;60.15
70256;BME280;57669;52.624;-1.688;2022-11-03T03:35:32;99638.34;;;9.18;60.02
70256;BME280;57669;52.624;-1.688;2022-11-03T03:37:58;99631.35;;;10.42;57.43
70256;BME280;57669;52.624;-1.688;2022-11-03T03:40:23;99633.14;;;10.31;57.60
70256;BME280;57669;52.624;-1.688;2022-11-03T03:42:47;99630.43;;;10.35;58.12
70256;BME280;57669;52.624;-1.688;2022-11-03T03:45:13;99635.66;;;9.90;58.82
70256;BME280;57669;52.624;-1.688;2022-11-03T03:47:38;99628.07;;;9.94;57.69
70256;BME280;57669;52.624;-1.688;2022-11-03T03:50:04;99613.14;;;10.14;57.79
70256;BME280;57669;52.624;-1.688;2022-11-03T03:52:29;99610.44;;;9.47;58.95
70256;BME280;57669;52.624;-1.688;2022-11-03T03:54:55;99606.70;;;10.58;56.55
70256;BME280;57669;52.624;-1.688;2022-11-03T03:57:22;99606.94;;;10.83;56.36
70256;BME280;57669;52.624;-1.688;2022-11-03T03:59:45;99606.67;;;9.93;58.17
70256;BME280;57669;52.624;-1.688;2022-11-03T04:02:11;99612.60;;;10.66;57.29
70256;BME280;57669;52.624;-1.688;2022-11-03T04:04:37;99623.63;;;9.21;59.47
70256;BME280;57669;52.624;-1.688;2022-11-03T04:07:02;99620.49;;;9.36;59.58
70256;BME280;57669;52.624;-1.688;2022-11-03T04:09:27;99612.20;;;9.79;59.25
70256;BME280;57669;52.624;-1.688;2022-11-03T04:11:53;99606.22;;;9.75;59.62
70256;BME280;57669;52.624;-1.688;2022-11-03T04:14:18;99598.65;;;10.02;59.04
70256;BME280;57669;52.624;-1.688;2022-11-03T04:17:04;99603.43;;;9.75;59.36
70256;BME280;57669;52.624;-1.688;2022-11-03T04:19:10;99605.96;;;9.72;59.67
70256;BME280;57669;52.624;-1.688;2022-11-03T04:21:35;99597.72;;;10.28;57.93
70256;BME280;57669;52.624;-1.688;2022-11-03T04:24:01;99593.97;;;10.22;57.51
70256;BME280;57669;52.624;-1.688;2022-11-03T04:26:27;99589.89;;;9.89;58.20
70256;BME280;57669;52.624;-1.688;2022-11-03T04:28:52;99595.81;;;9.85;58.17
70256;BME280;57669;52.624;-1.688;2022-11-03T04:31:18;99591.79;;;9.83;58.75
70256;BME280;57669;52.624;-1.688;2022-11-03T04:33:43;99599.81;;;8.92;60.28
70256;BME280;57669;52.624;-1.688;2022-11-03T04:36:12;99588.71;;;10.11;58.92
70256;BME280;57669;52.624;-1.688;2022-11-03T04:38:33;99595.37;;;9.64;59.34
70256;BME280;57669;52.624;-1.688;2022-11-03T04:40:59;99591.04;;;9.94;58.12
70256;BME280;57669;52.624;-1.688;2022-11-03T04:43:32;99593.33;;;10.10;57.76
70256;BME280;57669;52.624;-1.688;2022-11-03T04:45:51;99589.85;;;9.85;58.78
70256;BME280;57669;52.624;-1.688;2022-11-03T04:48:18;99587.92;;;10.29;58.41
70256;BME280;57669;52.624;-1.688;2022-11-03T04:50:42;99590.67;;;9.37;60.43
70256;BME280;57669;52.624;-1.688;2022-11-03T04:53:10;99585.82;;;9.37;61.49
70256;BME280;57669;52.624;-1.688;2022-11-03T04:55:32;99588.07;;;9.75;60.92
70256;BME280;57669;52.624;-1.688;2022-11-03T04:58:05;99587.90;;;8.96;61.76
70256;BME280;57669;52.624;-1.688;2022-11-03T05:00:23;99590.72;;;9.45;61.65
70256;BME280;57669;52.624;-1.688;2022-11-03T05:02:50;99585.25;;;9.77;60.84
70256;BME280;57669;52.624;-1.688;2022-11-03T05:05:16;99578.10;;;9.69;60.02
70256;BME280;57669;52.624;-1.688;2022-11-03T05:07:39;99577.00;;;9.75;60.34
70256;BME280;57669;52.624;-1.688;2022-11-03T05:10:09;99575.83;;;8.65;63.58
70256;BME280;57669;52.624;-1.688;2022-11-03T05:12:30;99568.40;;;9.11;61.85
70256;BME280;57669;52.624;-1.688;2022-11-03T05:14:56;99569.74;;;9.45;61.66
70256;BME280;57669;52.624;-1.688;2022-11-03T05:17:24;99567.32;;;9.12;62.18
70256;BME280;57669;52.624;-1.688;2022-11-03T05:19:47;99562.46;;;9.02;62.06
70256;BME280;57669;52.624;-1.688;2022-11-03T05:22:15;99553.40;;;9.33;61.82
70256;BME280;57669;52.624;-1.688;2022-11-03T05:24:37;99545.78;;;8.87;61.91
70256;BME280;57669;52.624;-1.688;2022-11-03T05:27:04;99545.46;;;9.66;61.03
70256;BME280;57669;52.624;-1.688;2022-11-03T05:29:33;99543.50;;;8.62;62.20
70256;BME280;57669;52.624;-1.688;2022-11-03T05:31:54;99537.99;;;9.69;60.83
70256;BME280;57669;52.624;-1.688;2022-11-03T05:34:31;99533.71;;;8.20;63.82
70256;BME280;57669;52.624;-1.688;2022-11-03T05:36:45;99528.63;;;9.50;61.93
70256;BME280;57669;52.624;-1.688;2022-11-03T05:39:24;99524.62;;;9.94;60.87
70256;BME280;57669;52.624;-1.688;2022-11-03T05:41:36;99526.40;;;9.30;61.63
70256;BME280;57669;52.624;-1.688;2022-11-03T05:44:13;99526.91;;;8.95;62.66
70256;BME280;57669;52.624;-1.688;2022-11-03T05:46:30;99522.46;;;8.96;62.37
70256;BME280;57669;52.624;-1.688;2022-11-03T05:48:52;99516.99;;;8.86;62.12
70256;BME280;57669;52.624;-1.688;2022-11-03T05:51:20;99513.54;;;9.17;62.11
70256;BME280;57669;52.624;-1.688;2022-11-03T05:53:44;99507.65;;;8.01;65.21
70256;BME280;57669;52.624;-1.688;2022-11-03T05:56:14;99502.32;;;8.95;63.69
70256;BME280;57669;52.624;-1.688;2022-11-03T05:58:36;99498.03;;;9.41;62.21
70256;BME280;57669;52.624;-1.688;2022-11-03T06:01:03;99499.38;;;8.36;65.15
70256;BME280;57669;52.624;-1.688;2022-11-03T06:03:28;99502.74;;;8.51;64.89
70256;BME280;57669;52.624;-1.688;2022-11-03T06:05:52;99504.72;;;8.65;63.57
70256;BME280;57669;52.624;-1.688;2022-11-03T06:08:19;99506.67;;;9.16;62.26
70256;BME280;57669;52.624;-1.688;2022-11-03T06:10:46;99503.46;;;9.41;61.56
70256;BME280;57669;52.624;-1.688;2022-11-03T06:13:14;99495.58;;;8.69;61.94
70256;BME280;57669;52.624;-1.688;2022-11-03T06:15:34;99490.13;;;9.21;60.90
70256;BME280;57669;52.624;-1.688;2022-11-03T06:18:01;99496.46;;;9.33;60.45
70256;BME280;57669;52.624;-1.688;2022-11-03T06:20:25;99497.65;;;8.93;60.79
70256;BME280;57669;52.624;-1.688;2022-11-03T06:22:52;99494.73;;;9.48;60.08
70256;BME280;57669;52.624;-1.688;2022-11-03T06:27:42;99501.26;;;8.75;61.75
70256;BME280;57669;52.624;-1.688;2022-11-03T06:30:19;99496.20;;;9.52;60.05
70256;BME280;57669;52.624;-1.688;2022-11-03T06:32:33;99491.12;;;9.20;60.69
70256;BME280;57669;52.624;-1.688;2022-11-03T06:34:58;99485.44;;;9.44;59.97
70256;BME280;57669;52.624;-1.688;2022-11-03T06:37:25;99483.35;;;9.09;60.61
70256;BME280;57669;52.624;-1.688;2022-11-03T06:39:52;99482.35;;;9.99;59.54
70256;BME280;57669;52.624;-1.688;2022-11-03T06:42:19;99485.38;;;9.07;61.71
70256;BME280;57669;52.624;-1.688;2022-11-03T06:44:42;99477.76;;;9.84;59.43
70256;BME280;57669;52.624;-1.688;2022-11-03T06:47:15;99471.76;;;9.89;59.24
70256;BME280;57669;52.624;-1.688;2022-11-03T06:49:33;99471.34;;;9.71;59.49
70256;BME280;57669;52.624;-1.688;2022-11-03T06:51:58;99470.63;;;9.99;59.96
70256;BME280;57669;52.624;-1.688;2022-11-03T06:54:23;99475.78;;;8.78;63.97
70256;BME280;57669;52.624;-1.688;2022-11-03T06:56:49;99481.11;;;9.23;62.37
70256;BME280;57669;52.624;-1.688;2022-11-03T07:01:40;99468.75;;;9.39;61.77
70256;BME280;57669;52.624;-1.688;2022-11-03T07:04:13;99467.57;;;9.02;61.45
70256;BME280;57669;52.624;-1.688;2022-11-03T07:06:34;99464.47;;;8.14;63.60
70256;BME280;57669;52.624;-1.688;2022-11-03T07:08:58;99460.68;;;9.27;61.87
70256;BME280;57669;52.624;-1.688;2022-11-03T07:11:24;99461.96;;;9.37;61.76
70256;BME280;57669;52.624;-1.688;2022-11-03T07:13:50;99460.47;;;9.60;60.09
70256;BME280;57669;52.624;-1.688;2022-11-03T07:16:18;99457.86;;;9.33;61.73
70256;BME280;57669;52.624;-1.688;2022-11-03T07:18:41;99458.53;;;9.22;61.77
70256;BME280;57669;52.624;-1.688;2022-11-03T07:23:30;99459.82;;;9.00;61.30
70256;BME280;57669;52.624;-1.688;2022-11-03T07:25:58;99465.68;;;9.21;60.76
70256;BME280;57669;52.624;-1.688;2022-11-03T07:28:24;99458.01;;;9.22;61.27
70256;BME280;57669;52.624;-1.688;2022-11-03T07:30:47;99459.94;;;9.21;61.04
70256;BME280;57669;52.624;-1.688;2022-11-03T07:33:17;99456.59;;;9.35;61.02
70256;BME280;57669;52.624;-1.688;2022-11-03T07:35:40;99462.90;;;10.05;58.97
70256;BME280;57669;52.624;-1.688;2022-11-03T07:38:09;99463.42;;;9.22;60.68
70256;BME280;57669;52.624;-1.688;2022-11-03T07:40:31;99459.24;;;9.47;60.96
70256;BME280;57669;52.624;-1.688;2022-11-03T07:42:57;99458.56;;;8.28;62.88
70256;BME280;57669;52.624;-1.688;2022-11-03T07:45:32;99448.15;;;9.18;60.53
70256;BME280;57669;52.624;-1.688;2022-11-03T07:47:47;99452.46;;;9.89;58.90
70256;BME280;57669;52.624;-1.688;2022-11-03T07:50:16;99454.17;;;9.47;59.37
70256;BME280;57669;52.624;-1.688;2022-11-03T07:52:39;99457.54;;;8.49;60.61
70256;BME280;57669;52.624;-1.688;2022-11-03T07:55:09;99450.28;;;9.65;58.52
70256;BME280;57669;52.624;-1.688;2022-11-03T07:57:30;99458.28;;;9.49;59.65
70256;BME280;57669;52.624;-1.688;2022-11-03T07:59:58;99461.04;;;9.36;59.03
70256;BME280;57669;52.624;-1.688;2022-11-03T08:02:29;99466.52;;;9.53;59.45
70256;BME280;57669;52.624;-1.688;2022-11-03T08:04:47;99469.97;;;9.86;58.26
70256;BME280;57669;52.624;-1.688;2022-11-03T08:07:12;99473.55;;;9.43;59.01
70256;BME280;57669;52.624;-1.688;2022-11-03T08:09:38;99470.85;;;9.81;57.53
70256;BME280;57669;52.624;-1.688;2022-11-03T08:12:04;99466.13;;;10.01;57.98
70256;BME280;57669;52.624;-1.688;2022-11-03T08:14:29;99468.15;;;9.31;58.46
70256;BME280;57669;52.624;-1.688;2022-11-03T08:16:55;99462.74;;;9.75;58.37
70256;BME280;57669;52.624;-1.688;2022-11-03T08:19:21;99452.88;;;9.56;58.76
70256;BME280;57669;52.624;-1.688;2022-11-03T08:21:46;99454.79;;;9.46;58.18
70256;BME280;57669;52.624;-1.688;2022-11-03T08:24:12;99463.46;;;9.93;57.86
70256;BME280;57669;52.624;-1.688;2022-11-03T08:26:37;99461.26;;;9.38;58.58
70256;BME280;57669;52.624;-1.688;2022-11-03T08:29:03;99456.27;;;9.29;58.93
70256;BME280;57669;52.624;-1.688;2022-11-03T08:31:28;99454.08;;;9.77;59.14
70256;BME280;57669;52.624;-1.688;2022-11-03T08:33:54;99445.04;;;9.53;60.13
70256;BME280;57669;52.624;-1.688;2022-11-03T08:36:20;99440.58;;;8.88;60.10
70256;BME280;57669;52.624;-1.688;2022-11-03T08:38:46;99442.04;;;9.14;59.34
70256;BME280;57669;52.624;-1.688;2022-11-03T08:41:11;99440.49;;;9.33;58.97
70256;BME280;57669;52.624;-1.688;2022-11-03T08:43:37;99443.75;;;10.15;57.87
70256;BME280;57669;52.624;-1.688;2022-11-03T08:46:02;99441.90;;;9.15;58.86
70256;BME280;57669;52.624;-1.688;2022-11-03T08:48:28;99444.43;;;9.87;57.89
70256;BME280;57669;52.624;-1.688;2022-11-03T08:50:54;99442.29;;;9.99;58.35
70256;BME280;57669;52.624;-1.688;2022-11-03T08:53:21;99441.20;;;10.04;58.53
70256;BME280;57669;52.624;-1.688;2022-11-03T08:55:45;99439.89;;;8.88;59.40
70256;BME280;57669;52.624;-1.688;2022-11-03T08:58:11;99440.70;;;9.67;59.00
70256;BME280;57669;52.624;-1.688;2022-11-03T09:00:37;99439.25;;;8.90;60.22
70256;BME280;57669;52.624;-1.688;2022-11-03T09:03:02;99441.07;;;9.45;60.00
70256;BME280;57669;52.624;-1.688;2022-11-03T09:05:28;99438.33;;;8.96;61.36
70256;BME280;57669;52.624;-1.688;2022-11-03T09:07:54;99434.42;;;9.42;60.42
70256;BME280;57669;52.624;-1.688;2022-11-03T09:10:19;99427.29;;;9.76;59.72
70256;BME280;57669;52.624;-1.688;2022-11-03T09:12:45;99430.09;;;8.75;61.01
70256;BME280;57669;52.624;-1.688;2022-11-03T09:15:11;99430.54;;;9.11;60.71
70256;BME280;57669;52.624;-1.688;2022-11-03T09:17:37;99433.74;;;9.64;59.96
70256;BME280;57669;52.624;-1.688;2022-11-03T09:20:03;99430.95;;;8.71;61.06
70256;BME280;57669;52.624;-1.688;2022-11-03T09:22:28;99432.43;;;8.57;61.37
70256;BME280;57669;52.624;-1.688;2022-11-03T09:24:54;99432.06;;;8.81;62.05
70256;BME280;57669;52.624;-1.688;2022-11-03T09:27:20;99421.82;;;8.70;61.95
70256;BME280;57669;52.624;-1.688;2022-11-03T09:29:45;99413.02;;;9.30;59.46
70256;BME280;57669;52.624;-1.688;2022-11-03T09:32:11;99410.96;;;9.70;59.80
70256;BME280;57669;52.624;-1.688;2022-11-03T09:34:36;99410.92;;;9.69;59.83
70256;BME280;57669;52.624;-1.688;2022-11-03T09:37:02;99413.90;;;9.21;59.84
70256;BME280;57669;52.624;-1.688;2022-11-03T09:39:28;99412.83;;;9.34;59.32
70256;BME280;57669;52.624;-1.688;2022-11-03T09:41:54;99419.69;;;9.72;59.29
70256;BME280;57669;52.624;-1.688;2022-11-03T09:44:20;99424.22;;;10.11;59.15
70256;BME280;57669;52.624;-1.688;2022-11-03T09:46:45;99415.96;;;9.84;60.15
70256;BME280;57669;52.624;-1.688;2022-11-03T09:49:12;99415.34;;;9.38;60.54
70256;BME280;57669;52.624;-1.688;2022-11-03T09:51:37;99423.52;;;8.61;62.22
70256;BME280;57669;52.624;-1.688;2022-11-03T09:54:04;99419.72;;;9.23;60.40
70256;BME280;57669;52.624;-1.688;2022-11-03T09:56:29;99420.79;;;9.35;59.82
70256;BME280;57669;52.624;-1.688;2022-11-03T09:58:54;99425.79;;;10.03;58.53
70256;BME280;57669;52.624;-1.688;2022-11-03T10:01:20;99432.71;;;9.70;58.08
70256;BME280;57669;52.624;-1.688;2022-11-03T10:03:45;99437.02;;;9.79;57.59
70256;BME280;57669;52.624;-1.688;2022-11-03T10:06:11;99434.47;;;9.44;58.83
70256;BME280;57669;52.624;-1.688;2022-11-03T10:08:39;99429.76;;;9.04;60.68
70256;BME280;57669;52.624;-1.688;2022-11-03T10:11:03;99424.46;;;9.03;60.55
70256;BME280;57669;52.624;-1.688;2022-11-03T10:13:30;99416.85;;;9.79;58.82
70256;BME280;57669;52.624;-1.688;2022-11-03T10:15:54;99409.46;;;9.68;59.77
70256;BME280;57669;52.624;-1.688;2022-11-03T10:18:20;99406.60;;;9.69;59.64
70256;BME280;57669;52.624;-1.688;2022-11-03T10:20:45;99406.00;;;10.16;57.87
70256;BME280;57669;52.624;-1.688;2022-11-03T10:23:10;99409.04;;;9.99;57.57
70256;BME280;57669;52.624;-1.688;2022-11-03T10:25:37;99405.64;;;9.84;57.83
70256;BME280;57669;52.624;-1.688;2022-11-03T10:28:11;99400.82;;;10.06;57.02
70256;BME280;57669;52.624;-1.688;2022-11-03T10:30:27;99394.69;;;10.79;55.31
70256;BME280;57669;52.624;-1.688;2022-11-03T10:32:53;99399.06;;;10.86;54.86
70256;BME280;57669;52.624;-1.688;2022-11-03T10:37:44;99398.41;;;10.80;56.08
70256;BME280;57669;52.624;-1.688;2022-11-03T10:40:32;99389.36;;;10.21;57.02
70256;BME280;57669;52.624;-1.688;2022-11-03T10:42:36;99374.75;;;10.42;57.67
70256;BME280;57669;52.624;-1.688;2022-11-03T10:45:10;99380.04;;;10.57;55.49
70256;BME280;57669;52.624;-1.688;2022-11-03T10:47:32;99383.87;;;10.63;55.47
70256;BME280;57669;52.624;-1.688;2022-11-03T10:49:53;99386.45;;;10.60;55.71
70256;BME280;57669;52.624;-1.688;2022-11-03T10:52:19;99394.29;;;10.19;56.73
70256;BME280;57669;52.624;-1.688;2022-11-03T10:54:44;99376.84;;;10.86;55.05
70256;BME280;57669;52.624;-1.688;2022-11-03T10:57:09;99376.49;;;10.93;56.23
70256;BME280;57669;52.624;-1.688;2022-11-03T10:59:36;99378.48;;;10.69;55.14
70256;BME280;57669;52.624;-1.688;2022-11-03T11:02:01;99376.32;;;10.72;55.50
70256;BME280;57669;52.624;-1.688;2022-11-03T11:04:26;99368.25;;;10.95;55.39
70256;BME280;57669;52.624;-1.688;2022-11-03T11:06:51;99366.66;;;10.71;54.88
70256;BME280;57669;52.624;-1.688;2022-11-03T11:09:21;99366.43;;;10.65;56.00
70256;BME280;57669;52.624;-1.688;2022-11-03T11:19:00;99369.89;;;11.04;55.02
70256;BME280;57669;52.624;-1.688;2022-11-03T11:23:51;99374.35;;;11.76;52.91
70256;BME280;57669;52.624;-1.688;2022-11-03T11:26:29;99370.52;;;11.56;52.40
70256;BME280;57669;52.624;-1.688;2022-11-03T11:28:43;99367.98;;;10.70;54.49
70256;BME280;57669;52.624;-1.688;2022-11-03T11:33:33;99369.52;;;11.19;53.74
70256;BME280;57669;52.624;-1.688;2022-11-03T11:36:04;99369.52;;;11.36;52.85
70256;BME280;57669;52.624;-1.688;2022-11-03T11:40:50;99369.08;;;10.76;54.23
70256;BME280;57669;52.624;-1.688;2022-11-03T11:43:24;99372.42;;;11.11;54.04
70256;BME280;57669;52.624;-1.688;2022-11-03T11:48:15;99373.99;;;11.84;52.24
70256;BME280;57669;52.624;-1.688;2022-11-03T11:50:33;99371.56;;;11.07;53.11
70256;BME280;57669;52.624;-1.688;2022-11-03T11:53:03;99368.58;;;11.11;53.30
70256;BME280;57669;52.624;-1.688;2022-11-03T11:55:31;99372.94;;;11.58;52.14
70256;BME280;57669;52.624;-1.688;2022-11-03T11:57:51;99373.22;;;11.40;51.19
70256;BME280;57669;52.624;-1.688;2022-11-03T12:00:18;99366.84;;;11.91;51.43
70256;BME280;57669;52.624;-1.688;2022-11-03T12:02:46;99365.45;;;12.04;49.86
70256;BME280;57669;52.624;-1.688;2022-11-03T12:05:16;99367.87;;;12.76;48.95
70256;BME280;57669;52.624;-1.688;2022-11-03T12:07:34;99362.57;;;12.91;46.98
70256;BME280;57669;52.624;-1.688;2022-11-03T12:10:07;99363.27;;;12.52;48.71
70256;BME280;57669;52.624;-1.688;2022-11-03T12:12:32;99354.65;;;12.48;47.36
70256;BME280;57669;52.624;-1.688;2022-11-03T12:14:50;99346.96;;;12.99;46.13
70256;BME280;57669;52.624;-1.688;2022-11-03T12:19:42;99339.67;;;13.18;45.09
70256;BME280;57669;52.624;-1.688;2022-11-03T12:22:08;99334.99;;;13.19;45.60
70256;BME280;57669;52.624;-1.688;2022-11-03T12:24:36;99338.94;;;12.25;46.46
70256;BME280;57669;52.624;-1.688;2022-11-03T12:26:59;99332.89;;;13.19;44.19
70256;BME280;57669;52.624;-1.688;2022-11-03T12:29:24;99334.40;;;14.68;41.31
70256;BME280;57669;52.624;-1.688;2022-11-03T12:31:49;99332.02;;;14.21;42.00
70256;BME280;57669;52.624;-1.688;2022-11-03T12:34:15;99326.85;;;14.46;41.65
70256;BME280;57669;52.624;-1.688;2022-11-03T12:36:40;99324.86;;;14.88;40.64
70256;BME280;57669;52.624;-1.688;2022-11-03T12:39:06;99319.31;;;14.66;39.92
70256;BME280;57669;52.624;-1.688;2022-11-03T12:41:32;99321.44;;;13.31;41.38
70256;BME280;57669;52.624;-1.688;2022-11-03T12:43:57;99318.43;;;14.61;38.82
70256;BME280;57669;52.624;-1.688;2022-11-03T12:46:23;99310.72;;;14.60;38.31
70256;BME280;57669;52.624;-1.688;2022-11-03T12:48:49;99309.37;;;15.56;37.56
70256;BME280;57669;52.624;-1.688;2022-11-03T12:51:16;99310.72;;;16.03;35.81
70256;BME280;57669;52.624;-1.688;2022-11-03T12:53:40;99302.42;;;15.69;34.23
70256;BME280;57669;52.624;-1.688;2022-11-03T12:56:06;99302.25;;;16.11;34.36
70256;BME280;57669;52.624;-1.688;2022-11-03T12:58:31;99297.59;;;14.74;34.59
70256;BME280;57669;52.624;-1.688;2022-11-03T13:00:57;99300.50;;;14.89;35.03
70256;BME280;57669;52.624;-1.688;2022-11-03T13:03:22;99298.59;;;15.06;34.82
70256;BME280;57669;52.624;-1.688;2022-11-03T13:05:47;99297.83;;;15.79;33.43
70256;BME280;57669;52.624;-1.688;2022-11-03T13:08:13;99282.78;;;16.94;32.42
70256;BME280;57669;52.624;-1.688;2022-11-03T13:10:39;99282.26;;;18.02;31.39
70256;BME280;57669;52.624;-1.688;2022-11-03T13:13:04;99286.48;;;18.41;29.16
70256;BME280;57669;52.624;-1.688;2022-11-03T13:15:30;99279.79;;;18.27;29.51
70256;BME280;57669;52.624;-1.688;2022-11-03T13:17:55;99284.91;;;17.28;30.05
70256;BME280;57669;52.624;-1.688;2022-11-03T13:20:21;99281.04;;;16.30;31.73
70256;BME280;57669;52.624;-1.688;2022-11-03T13:22:46;99282.11;;;17.74;29.76